Terminal Aerodrome Forecast
Issued by NWS

Home | Current Version | Previous Version | Text Only | Print | Product List | Glossary On
Versions: 1 2 3 4 5 6 7 8 9 10 11 12 13 14 15 16 17 18 19 20 21 22 23 24 25 26 27 28 29 30 31 32 33 34 35 36 37 38 39 40 41 42 43 44
000
FTUS43 KDVN 291023 AAA
TAFBRL
TAF AMD
KBRL 291023Z 2910/3006 08010KT 6SM -DZ BR OVC007
     FM291900 08015G21KT 3SM -RA BR OVC012
     FM300100 07015G24KT 2SM -RA BR OVC012=

USA.gov is the U.S. government's official web portal to all federal, state and local government web resources and services.